Nearby METAR Reports

 

KSJC - San Jose, California, USA
Distance from station: NE 14km
Updated: 14/08/2022 09:53
Clear
Clear
 Wind from calm
Wind: Calm
Temperature: 16°C
Dew Point: 13°C
Humidity: 83%
Barometer: 1015.9 hPa
Clouds: Clear
Visibility: 16 km
2022/08/14 07:53 KSJC 140753Z AUTO 00000KT 10SM CLR 16/13 A3000 RMK AO2 SLP157 T01610128 402830133
KNUQ - Moffett Nas/Mtn, California, USA
Distance from station: N 14km
Updated: 14/08/2022 10:15
Clear
Clear
 Wind from calm
Wind: Calm
Temperature: 17°C
Dew Point: 14°C
Humidity: 83%
Barometer: 1015.6 hPa
Clouds: Clear
Visibility: 16 km
2022/08/14 08:15 KNUQ 140815Z AUTO 00000KT 10SM CLR 17/14 A2999 RMK AO2
 
KPAO - Palo Alto, California, USA
Distance from station: NNW 23km
Updated: 14/08/2022 05:47
NOT Current
Clear
Clear
 Wind from NW
Wind: NW 13 km/h
Temperature: 18°C
Dew Point: 12°C
Humidity: 68%
Barometer: 1015.6 hPa
Clouds: Clear
Visibility: 16 km
2022/08/14 03:47 KPAO 140347Z 31007KT 10SM SKC 18/12 A2999 RMK LAST
KRHV - San Jose/Reid, California, USA
Distance from station: ENE 19km
Updated: 14/08/2022 06:55
NOT Current
Clear
Clear
 Wind from NW
Wind: NW 7 km/h
Temperature: 18°C
Dew Point: 12°C
Humidity: 68%
Barometer: 1016.6 hPa
Clouds: Clear
Visibility: 16 km
2022/08/14 04:55 KRHV 140455Z 32004KT 10SM SKC 18/12 A3002 RMK LAST
 
KOAK - Oakland, California, USA
Distance from station: NNW 50km
Updated: 14/08/2022 09:53
Few Clouds
Few Clouds
 Wind from W
Wind: W 17 km/h
Temperature: 16°C
Dew Point: 13°C
Humidity: 83%
Barometer: 1016.3 hPa
Clouds: Few Clouds
Visibility: 16 km
Cloud details: Few Clouds 305 m
2022/08/14 07:53 KOAK 140753Z 26009KT 10SM FEW010 16/13 A3001 RMK AO2 SLP161 T01610128 402330139
KSQL - San Carlos Airpo, California, USA
Distance from station: NW 34km
Updated: 14/08/2022 10:15
Clear
Clear
 Wind from calm
Wind: Calm
Temperature: 17°C
Dew Point: 13°C
Humidity: 77%
Barometer: 1015.9 hPa
Clouds: Clear
Visibility: 16 km
2022/08/14 08:15 KSQL 140815Z AUTO 00000KT 10SM CLR 17/13 A3000 RMK AO2
 
KSFO - San Francisco, California, USA
Distance from station: NW 49km
Updated: 14/08/2022 09:56
Few Clouds
Few Clouds
 Wind from NW
Wind: NW 6 km/h
Temperature: 16°C
Dew Point: 12°C
Humidity: 77%
Barometer: 1015.6 hPa
Clouds: Few Clouds
Visibility: 16 km
Cloud details: Few Clouds 244 m
2022/08/14 07:56 KSFO 140756Z 32003KT 10SM FEW008 16/12 A2999 RMK AO2 SLP156 T01610122 402330150
KE16 - San Martin, California, USA
Distance from station: ESE 43km
Updated: 14/08/2022 10:15
Clear
Clear
 Wind from calm
Wind: Calm
Temperature: 15°C
Dew Point: 12°C
Humidity: 82%
Barometer: 1016.6 hPa
Clouds: Clear
Visibility: 16 km
2022/08/14 08:15 KE16 140815Z AUTO 00000KT 10SM CLR 15/12 A3002 RMK AO2 PWINO PNO
 
KWVI - Watsonville, California, USA
Distance from station: SSE 44km
Updated: 14/08/2022 09:53
Clear
Clear
 Wind from calm
Wind: Calm
Temperature: 13°C
Dew Point: 12°C
Humidity: 94%
Barometer: 1016.6 hPa
Clouds: Clear
Visibility: 16 km
2022/08/14 07:53 KWVI 140753Z AUTO 00000KT 10SM CLR 13/12 A3002 RMK AO2 SLP165 T01280122 402560100
KHAF - Half Moon Bay, California, USA
Distance from station: WNW 50km
Updated: 14/08/2022 10:35
Mist, Overcast
Mist, Overcast
 Wind from SE
Wind: SE 6 km/h
Temperature: 15°C
Dew Point: 14°C
Humidity: 94%
Barometer: 1016.6 hPa
Summary: Mist
Clouds: Overcast
Visibility: 10 km
Cloud details: Overcast 366 m
2022/08/14 08:35 KHAF 140835Z AUTO 14003KT 6SM BR OVC012 15/14 A3002 RMK AO2
 
KHWD - Hayward, California, USA
Distance from station: N 44km
Updated: 14/08/2022 09:54
Clear
Clear
 Wind from calm
Wind: Calm
Temperature: 16°C
Dew Point: 13°C
Humidity: 83%
Barometer: 1015.6 hPa
Clouds: Clear
Visibility: 16 km
2022/08/14 07:54 KHWD 140754Z 00000KT 10SM CLR 16/13 A2999 RMK AO2 SLP165 T01610133 402390139
KLVK - Livermore, California, USA
Distance from station: NNE 51km
Updated: 14/08/2022 09:53
Clear
Clear
 Wind from NNW
Wind: NNW 6 km/h
Temperature: 16°C
Dew Point: 12°C
Humidity: 77%
Barometer: 1015.2 hPa
Clouds: Clear
Visibility: 16 km
2022/08/14 07:53 KLVK 140753Z AUTO 33003KT 10SM CLR 16/12 A2998 RMK AO2 SLP149 T01560122 403280122 $